createdAt,value
2019-05-29T00:03:37.286Z,10.29
2019-05-29T00:08:43.227Z,10.24
2019-05-29T00:13:48.487Z,10.16
2019-05-29T00:18:53.732Z,10.15
2019-05-29T00:23:58.980Z,10.13
2019-05-29T00:29:05.541Z,10.10
2019-05-29T00:34:11.110Z,10.11
2019-05-29T00:39:17.037Z,10.10
2019-05-29T00:44:33.872Z,10.01
2019-05-29T00:49:29.449Z,9.95
2019-05-29T00:54:35.000Z,9.83
2019-05-29T00:59:41.901Z,9.78
2019-05-29T01:04:47.113Z,9.68
2019-05-29T01:09:52.652Z,9.58
2019-05-29T01:14:58.933Z,9.52
2019-05-29T01:20:05.412Z,9.46
2019-05-29T01:25:12.413Z,9.40
2019-05-29T01:30:18.999Z,9.31
2019-05-29T01:35:25.201Z,9.22
2019-05-29T01:40:30.479Z,9.12
2019-05-29T01:45:35.733Z,9.16
2019-05-29T01:50:41.346Z,9.12
2019-05-29T01:55:46.946Z,9.02
2019-05-29T02:00:52.276Z,8.99
2019-05-29T02:05:58.447Z,8.90
2019-05-29T02:11:03.808Z,8.79
2019-05-29T02:16:09.040Z,8.77
2019-05-29T02:21:14.197Z,8.71
2019-05-29T02:26:20.384Z,8.66
2019-05-29T02:31:27.087Z,8.66
2019-05-29T02:36:32.734Z,8.68
2019-05-29T02:41:37.987Z,8.62
2019-05-29T02:46:43.248Z,8.58
2019-05-29T02:51:53.907Z,8.51
2019-05-29T02:56:59.171Z,8.53
2019-05-29T03:02:04.392Z,8.52
2019-05-29T03:07:09.632Z,8.52
2019-05-29T03:12:14.838Z,8.51
2019-05-29T03:17:20.366Z,8.50
2019-05-29T03:22:26.268Z,8.55
2019-05-29T03:27:32.038Z,8.49
2019-05-29T03:32:46.672Z,8.48
2019-05-29T03:37:44.421Z,8.52
2019-05-29T03:42:49.673Z,8.55
2019-05-29T03:47:54.975Z,8.51
2019-05-29T03:53:00.227Z,8.47
2019-05-29T03:58:05.489Z,8.45
2019-05-29T04:03:10.769Z,8.41
2019-05-29T04:08:16.050Z,8.44
2019-05-29T04:13:21.298Z,8.55
2019-05-29T04:18:27.709Z,8.46
2019-05-29T04:23:36.827Z,8.45
2019-05-29T04:28:44.626Z,8.41
2019-05-29T04:33:50.176Z,8.38
2019-05-29T04:38:55.788Z,8.34
2019-05-29T04:44:01.052Z,8.25
2019-05-29T04:49:06.330Z,8.25
2019-05-29T04:54:11.591Z,8.23
2019-05-29T04:59:16.850Z,8.16
2019-05-29T05:04:22.100Z,8.16
2019-05-29T05:09:27.377Z,8.08
2019-05-29T05:14:33.627Z,8.04
2019-05-29T05:19:40.061Z,7.98
2019-05-29T05:24:45.756Z,7.93
2019-05-29T05:29:51.357Z,7.89
2019-05-29T05:34:57.679Z,7.85
2019-05-29T05:40:02.883Z,7.77
2019-05-29T05:45:08.292Z,7.70
2019-05-29T05:50:13.940Z,7.61
2019-05-29T05:55:19.196Z,7.55
2019-05-29T06:00:32.112Z,7.56
2019-05-29T06:05:38.226Z,7.58
2019-05-29T06:10:43.502Z,7.56
2019-05-29T06:15:48.849Z,7.62
2019-05-29T06:20:55.007Z,7.66
2019-05-29T06:26:00.889Z,7.71
2019-05-29T06:31:06.056Z,7.75
2019-05-29T06:36:11.299Z,7.86
2019-05-29T06:41:16.723Z,7.96
2019-05-29T06:46:21.909Z,8.04
2019-05-29T06:51:27.077Z,8.16
2019-05-29T06:56:32.248Z,8.25
2019-05-29T07:01:37.477Z,8.27
2019-05-29T07:06:42.792Z,8.30
2019-05-29T07:11:48.745Z,8.39
2019-05-29T07:16:56.171Z,8.48
2019-05-29T07:22:01.218Z,8.53
2019-05-29T07:27:06.399Z,8.51
2019-05-29T07:32:12.337Z,8.51
2019-05-29T07:37:18.655Z,8.69
2019-05-29T07:42:23.859Z,8.73
2019-05-29T07:47:29.127Z,8.73
2019-05-29T07:52:34.332Z,8.89
2019-05-29T07:57:40.876Z,8.81
2019-05-29T08:02:47.512Z,8.88
2019-05-29T08:07:53.023Z,8.99
2019-05-29T08:12:58.272Z,8.98
2019-05-29T08:18:03.521Z,9.10
2019-05-29T08:23:08.867Z,9.40
2019-05-29T08:28:14.129Z,9.75
2019-05-29T08:33:19.382Z,9.77
2019-05-29T08:38:25.591Z,10.00
2019-05-29T08:43:30.840Z,9.92
2019-05-29T08:48:36.086Z,10.03
2019-05-29T08:53:42.553Z,10.14
2019-05-29T08:58:48.378Z,10.17
2019-05-29T09:03:53.883Z,10.13
2019-05-29T09:08:59.238Z,10.59
2019-05-29T09:14:05.145Z,10.48
2019-05-29T09:19:12.042Z,10.56
2019-05-29T09:24:18.079Z,10.99
2019-05-29T09:29:25.040Z,11.02
2019-05-29T09:34:30.434Z,10.92
2019-05-29T09:39:35.678Z,11.15
2019-05-29T09:44:40.942Z,11.26
2019-05-29T09:49:47.499Z,11.28
2019-05-29T09:54:53.584Z,11.76
2019-05-29T10:00:02.033Z,11.52
2019-05-29T10:05:08.168Z,11.41
2019-05-29T10:10:14.758Z,11.59
2019-05-29T10:15:20.510Z,11.96
2019-05-29T10:20:26.223Z,12.13
2019-05-29T10:25:31.773Z,11.86
2019-05-29T10:30:37.041Z,11.98
2019-05-29T10:35:42.703Z,12.30
2019-05-29T10:41:04.598Z,12.51
2019-05-29T10:45:55.362Z,12.69
2019-05-29T10:51:01.241Z,12.57
2019-05-29T10:56:06.614Z,12.66
2019-05-29T11:01:11.898Z,12.85
2019-05-29T11:06:17.216Z,13.29
2019-05-29T11:11:22.833Z,12.92
2019-05-29T11:16:28.099Z,13.05
2019-05-29T11:21:33.365Z,13.35
2019-05-29T11:26:38.639Z,13.13
2019-05-29T11:31:43.908Z,13.04
2019-05-29T11:36:49.979Z,13.20
2019-05-29T11:41:55.327Z,13.51
2019-05-29T11:47:00.604Z,12.90
2019-05-29T11:52:23.210Z,13.34
2019-05-29T11:57:13.360Z,13.46
2019-05-29T12:02:18.622Z,13.14
2019-05-29T12:07:23.914Z,13.74
2019-05-29T12:12:29.175Z,14.15
2019-05-29T12:17:35.784Z,13.96
2019-05-29T12:22:41.147Z,14.02
2019-05-29T12:27:46.406Z,14.10
2019-05-29T12:32:52.755Z,14.45
2019-05-29T12:37:59.359Z,14.12
2019-05-29T12:43:04.773Z,14.18
2019-05-29T12:48:13.585Z,14.21
2019-05-29T12:53:29.744Z,13.68
2019-05-29T12:58:23.962Z,13.74
2019-05-29T13:03:29.236Z,14.14
2019-05-29T13:08:34.499Z,15.05
2019-05-29T13:13:40.247Z,14.36
2019-05-29T13:18:45.896Z,14.13
2019-05-29T13:23:59.747Z,14.44
2019-05-29T13:29:04.224Z,14.47
2019-05-29T13:34:09.623Z,14.36
2019-05-29T13:39:15.280Z,14.82
2019-05-29T13:44:21.088Z,15.53
2019-05-29T13:49:26.340Z,16.24
2019-05-29T13:54:31.597Z,15.81
2019-05-29T13:59:36.861Z,15.18
2019-05-29T14:04:42.127Z,15.95
2019-05-29T14:09:47.783Z,15.43
2019-05-29T14:14:53.054Z,15.61
2019-05-29T14:19:58.656Z,16.92
2019-05-29T14:25:05.272Z,16.17
2019-05-29T14:30:11.309Z,16.78
2019-05-29T14:35:17.937Z,17.42
2019-05-29T14:40:23.206Z,18.43
2019-05-29T14:45:28.498Z,17.76
2019-05-29T14:50:33.773Z,17.27
2019-05-29T14:55:39.028Z,16.17
2019-05-29T15:00:44.336Z,16.76
2019-05-29T15:05:49.598Z,17.63
2019-05-29T15:10:54.854Z,17.70
2019-05-29T15:16:00.108Z,17.07
2019-05-29T15:21:05.357Z,16.32
2019-05-29T15:26:11.683Z,15.83
2019-05-29T15:31:17.593Z,16.79
2019-05-29T15:36:24.515Z,17.00
2019-05-29T15:41:30.002Z,18.35
2019-05-29T15:46:35.358Z,18.67
2019-05-29T15:51:40.615Z,18.75
2019-05-29T15:56:46.072Z,18.38
2019-05-29T16:01:51.333Z,18.95
2019-05-29T16:06:56.586Z,17.53
2019-05-29T16:12:01.913Z,18.83
2019-05-29T16:17:07.177Z,19.79
2019-05-29T16:22:12.437Z,19.89
2019-05-29T16:27:18.184Z,20.22
2019-05-29T16:32:23.585Z,20.18
2019-05-29T16:37:28.879Z,20.18
2019-05-29T16:42:34.139Z,19.94
2019-05-29T16:47:39.461Z,20.46
2019-05-29T16:52:45.062Z,20.33
2019-05-29T16:57:50.324Z,19.86
2019-05-29T17:02:55.586Z,19.65
2019-05-29T17:08:00.906Z,19.93
2019-05-29T17:13:07.103Z,20.19
2019-05-29T17:18:12.363Z,20.30
2019-05-29T17:23:18.862Z,20.54
2019-05-29T17:28:27.615Z,20.59
2019-05-29T17:33:31.202Z,20.11
2019-05-29T17:38:36.539Z,19.49
2019-05-29T17:43:41.793Z,19.80
2019-05-29T17:48:47.116Z,19.89
2019-05-29T17:53:52.384Z,20.03
2019-05-29T17:58:57.637Z,19.94
2019-05-29T18:04:02.901Z,19.65
2019-05-29T18:09:08.672Z,19.13
2019-05-29T18:14:14.045Z,18.20
2019-05-29T18:19:19.722Z,18.22
2019-05-29T18:24:26.059Z,17.99
2019-05-29T18:29:32.370Z,17.55
2019-05-29T18:34:37.935Z,16.60
2019-05-29T18:39:44.276Z,16.02
2019-05-29T18:44:49.810Z,15.62
2019-05-29T18:49:55.437Z,15.10
2019-05-29T18:55:01.008Z,14.74
2019-05-29T19:00:07.667Z,14.47
2019-05-29T19:05:13.453Z,14.20
2019-05-29T19:10:20.010Z,13.90
2019-05-29T19:15:25.967Z,13.64
2019-05-29T19:20:32.536Z,13.40
2019-05-29T19:25:37.826Z,13.19
2019-05-29T19:30:43.112Z,13.02
2019-05-29T19:35:48.399Z,12.87
2019-05-29T19:40:54.018Z,12.76
2019-05-29T19:45:59.369Z,12.67
2019-05-29T19:51:05.009Z,12.60
2019-05-29T19:56:10.645Z,12.51
2019-05-29T20:01:30.053Z,12.25
2019-05-29T20:06:22.926Z,11.78
2019-05-29T20:11:29.329Z,11.34
2019-05-29T20:16:36.227Z,11.01
2019-05-29T20:21:41.562Z,10.95
2019-05-29T20:26:46.812Z,10.72
2019-05-29T20:31:52.492Z,10.63
2019-05-29T20:36:58.219Z,10.48
2019-05-29T20:42:03.855Z,10.35
2019-05-29T20:47:09.120Z,10.22
2019-05-29T20:52:15.443Z,10.08
2019-05-29T20:57:21.089Z,10.08
2019-05-29T21:02:26.679Z,10.02
2019-05-29T21:07:32.551Z,9.91
2019-05-29T21:12:41.951Z,9.71
2019-05-29T21:17:44.825Z,9.73
2019-05-29T21:22:50.100Z,9.69
2019-05-29T21:27:56.211Z,9.52
2019-05-29T21:33:01.558Z,9.22
2019-05-29T21:38:06.797Z,9.04
2019-05-29T21:43:12.059Z,8.94
2019-05-29T21:48:17.460Z,8.81
2019-05-29T21:53:23.115Z,8.72
2019-05-29T21:58:28.480Z,8.56
2019-05-29T22:03:34.437Z,8.39
2019-05-29T22:08:40.613Z,8.34
2019-05-29T22:13:46.419Z,8.37
2019-05-29T22:18:52.907Z,8.26
2019-05-29T22:23:59.189Z,8.06
2019-05-29T22:29:17.445Z,8.05
2019-05-29T22:34:12.791Z,7.94
2019-05-29T22:39:18.351Z,7.89
2019-05-29T22:44:29.658Z,7.80
2019-05-29T22:49:34.976Z,7.77
2019-05-29T22:54:43.761Z,7.67
2019-05-29T22:59:49.392Z,7.61
2019-05-29T23:04:56.219Z,7.56
2019-05-29T23:10:02.677Z,7.50
2019-05-29T23:15:09.681Z,7.46
2019-05-29T23:20:16.620Z,7.39
2019-05-29T23:25:23.084Z,7.33
2019-05-29T23:30:30.645Z,7.32
2019-05-29T23:35:36.169Z,7.30
2019-05-29T23:40:42.451Z,7.25
2019-05-29T23:45:47.929Z,7.18
2019-05-29T23:50:53.495Z,7.12
2019-05-29T23:56:00.094Z,7.03
